Главная страница
METAR-TAF:

METAR-TAF

Аэропорты :

Фор-де-Франс, Мартиника

широта: 14-36N, долгота: 061-00W, высота над уровнем моря: 5 м

Текущие метеонаблюдения

Эта сводка был подготовлена 34 минут назад, в 18:30 UTC
Ветер 13 Узел от восточный
Температура 29°C
Влажность 62%
Давление 1012 hPa
Видимость 10 км и более
небольшая облачность на высоте 3100 фута

METAR: TFFF 151830Z AUTO 09013KT 9999 FEW031 29/21 Q1012 TEMPO 10015G30KT

Время: 15:04 (19:04 UTC)

Прогноз

Эта сводка был подготовлена 2 часа и 4 минут назад, в 17:00 UTC
Прогноз действительный с 15-го 18 UTC до 16-го 18 UTC
Ветер 10 Узел от восточный
Видимость 10 км и более
Отдельные облака на высоте 2500 фута
временами
С 15-го 18 UTC до 15-го 20 UTC
Ветер 15 Узел от восточный с порывами до 30 Узел
временами
С 16-го 14 UTC до 16-го 18 UTC
Ветер 15 Узел от восточный с порывами до 30 Узел

TAF: TFFF 151700Z 1518/1618 10010KT 9999 SCT025 TEMPO 1518/1520 10015G30KT TEMPO 1614/1618 10015G30KT

Метеонаблюдения и прогнозы для более 4000 аэропортов (сводки METAR и TAF).

Имеющиеся станции представлены на карте желтыми и красными точками.

Чтобы увидеть название станции, наведите на нее мышь.

Затем щелкните, чтобы увидеть метеонаблюдения и метеопрогнозы.

Управление картой: чтобы увеличить масштаб, щелкните зеленые кнопки с черным крестиком; чтобы уменьшить масштаб, щелкните зеленую кнопку с тире; для просмотра соседних карт щелкайте зеленые стрелки.


METAR-TAF: